sensor_id;sensor_type;location;lat;lon;timestamp;P1;durP1;ratioP1;P2;durP2;ratioP2
5060;SDS011;2549;52.128;21.068;2023-09-30T00:00:10;17.47;;;8.20;;
5060;SDS011;2549;52.128;21.068;2023-09-30T00:02:37;14.30;;;7.90;;
5060;SDS011;2549;52.128;21.068;2023-09-30T00:05:05;12.07;;;8.10;;
5060;SDS011;2549;52.128;21.068;2023-09-30T00:07:32;19.20;;;10.17;;
5060;SDS011;2549;52.128;21.068;2023-09-30T00:09:59;15.97;;;8.57;;
5060;SDS011;2549;52.128;21.068;2023-09-30T00:12:27;13.80;;;8.50;;
5060;SDS011;2549;52.128;21.068;2023-09-30T00:14:54;17.47;;;8.97;;
5060;SDS011;2549;52.128;21.068;2023-09-30T00:17:21;14.20;;;7.97;;
5060;SDS011;2549;52.128;21.068;2023-09-30T00:19:48;15.63;;;8.90;;
5060;SDS011;2549;52.128;21.068;2023-09-30T00:22:15;15.30;;;8.97;;
5060;SDS011;2549;52.128;21.068;2023-09-30T00:24:42;20.20;;;9.00;;
5060;SDS011;2549;52.128;21.068;2023-09-30T00:27:09;13.40;;;8.47;;
5060;SDS011;2549;52.128;21.068;2023-09-30T00:29:36;18.43;;;8.80;;
5060;SDS011;2549;52.128;21.068;2023-09-30T00:32:03;20.60;;;8.30;;
5060;SDS011;2549;52.128;21.068;2023-09-30T00:34:34;15.67;;;8.73;;
5060;SDS011;2549;52.128;21.068;2023-09-30T00:37:01;11.40;;;7.97;;
5060;SDS011;2549;52.128;21.068;2023-09-30T00:39:28;12.40;;;7.40;;
5060;SDS011;2549;52.128;21.068;2023-09-30T00:41:57;11.93;;;8.20;;
5060;SDS011;2549;52.128;21.068;2023-09-30T00:44:25;22.13;;;8.43;;
5060;SDS011;2549;52.128;21.068;2023-09-30T00:46:53;18.53;;;8.63;;
5060;SDS011;2549;52.128;21.068;2023-09-30T00:49:25;13.60;;;8.97;;
5060;SDS011;2549;52.128;21.068;2023-09-30T00:51:52;20.83;;;8.80;;
5060;SDS011;2549;52.128;21.068;2023-09-30T00:54:21;16.53;;;8.17;;
5060;SDS011;2549;52.128;21.068;2023-09-30T00:56:50;25.23;;;9.40;;
5060;SDS011;2549;52.128;21.068;2023-09-30T00:59:22;16.83;;;8.60;;
5060;SDS011;2549;52.128;21.068;2023-09-30T01:01:52;12.47;;;7.60;;
5060;SDS011;2549;52.128;21.068;2023-09-30T01:04:24;17.37;;;8.60;;
5060;SDS011;2549;52.128;21.068;2023-09-30T01:06:53;12.37;;;7.50;;
5060;SDS011;2549;52.128;21.068;2023-09-30T01:09:20;9.87;;;7.30;;
5060;SDS011;2549;52.128;21.068;2023-09-30T01:11:47;10.97;;;8.10;;
5060;SDS011;2549;52.128;21.068;2023-09-30T01:14:26;20.00;;;8.70;;
5060;SDS011;2549;52.128;21.068;2023-09-30T01:16:54;11.93;;;7.57;;
5060;SDS011;2549;52.128;21.068;2023-09-30T01:19:21;15.43;;;8.40;;
5060;SDS011;2549;52.128;21.068;2023-09-30T01:21:55;28.57;;;8.47;;
5060;SDS011;2549;52.128;21.068;2023-09-30T01:24:38;12.70;;;7.40;;
5060;SDS011;2549;52.128;21.068;2023-09-30T01:27:06;15.00;;;8.73;;
5060;SDS011;2549;52.128;21.068;2023-09-30T01:29:34;12.17;;;7.47;;
5060;SDS011;2549;52.128;21.068;2023-09-30T01:32:04;12.60;;;7.57;;
5060;SDS011;2549;52.128;21.068;2023-09-30T01:34:36;11.67;;;7.47;;
5060;SDS011;2549;52.128;21.068;2023-09-30T01:37:03;14.33;;;8.30;;
5060;SDS011;2549;52.128;21.068;2023-09-30T01:39:31;9.80;;;6.97;;
5060;SDS011;2549;52.128;21.068;2023-09-30T01:41:59;12.30;;;7.80;;
5060;SDS011;2549;52.128;21.068;2023-09-30T01:44:26;19.17;;;7.87;;
5060;SDS011;2549;52.128;21.068;2023-09-30T01:46:53;12.50;;;7.87;;
5060;SDS011;2549;52.128;21.068;2023-09-30T01:49:20;16.63;;;9.10;;
5060;SDS011;2549;52.128;21.068;2023-09-30T01:51:50;9.83;;;7.70;;
5060;SDS011;2549;52.128;21.068;2023-09-30T01:54:17;14.10;;;7.23;;
5060;SDS011;2549;52.128;21.068;2023-09-30T01:56:44;13.03;;;8.90;;
5060;SDS011;2549;52.128;21.068;2023-09-30T01:59:11;13.00;;;7.33;;
5060;SDS011;2549;52.128;21.068;2023-09-30T02:01:38;16.20;;;7.40;;
5060;SDS011;2549;52.128;21.068;2023-09-30T02:04:05;14.43;;;7.93;;
5060;SDS011;2549;52.128;21.068;2023-09-30T02:06:33;11.13;;;7.90;;
5060;SDS011;2549;52.128;21.068;2023-09-30T02:09:01;15.80;;;7.83;;
5060;SDS011;2549;52.128;21.068;2023-09-30T02:11:29;10.27;;;7.53;;
5060;SDS011;2549;52.128;21.068;2023-09-30T02:13:56;12.27;;;8.07;;
5060;SDS011;2549;52.128;21.068;2023-09-30T02:16:23;11.30;;;7.90;;
5060;SDS011;2549;52.128;21.068;2023-09-30T02:18:50;17.43;;;8.50;;
5060;SDS011;2549;52.128;21.068;2023-09-30T02:21:18;14.60;;;8.17;;
5060;SDS011;2549;52.128;21.068;2023-09-30T02:23:45;14.33;;;8.10;;
5060;SDS011;2549;52.128;21.068;2023-09-30T02:26:14;14.07;;;8.20;;
5060;SDS011;2549;52.128;21.068;2023-09-30T02:28:41;11.93;;;8.60;;
5060;SDS011;2549;52.128;21.068;2023-09-30T02:31:08;17.27;;;8.50;;
5060;SDS011;2549;52.128;21.068;2023-09-30T02:33:35;12.77;;;8.50;;
5060;SDS011;2549;52.128;21.068;2023-09-30T02:36:06;9.93;;;7.87;;
5060;SDS011;2549;52.128;21.068;2023-09-30T02:38:34;10.27;;;8.00;;
5060;SDS011;2549;52.128;21.068;2023-09-30T02:41:03;12.53;;;7.60;;
5060;SDS011;2549;52.128;21.068;2023-09-30T02:43:31;14.53;;;7.53;;
5060;SDS011;2549;52.128;21.068;2023-09-30T02:45:59;13.80;;;8.87;;
5060;SDS011;2549;52.128;21.068;2023-09-30T02:48:26;11.47;;;7.30;;
5060;SDS011;2549;52.128;21.068;2023-09-30T02:50:53;10.87;;;8.80;;
5060;SDS011;2549;52.128;21.068;2023-09-30T02:53:21;13.70;;;8.10;;
5060;SDS011;2549;52.128;21.068;2023-09-30T02:55:48;19.37;;;8.30;;
5060;SDS011;2549;52.128;21.068;2023-09-30T02:58:18;10.73;;;7.80;;
5060;SDS011;2549;52.128;21.068;2023-09-30T03:00:48;9.40;;;7.30;;
5060;SDS011;2549;52.128;21.068;2023-09-30T03:03:15;15.97;;;8.47;;
5060;SDS011;2549;52.128;21.068;2023-09-30T03:05:42;11.97;;;8.10;;
5060;SDS011;2549;52.128;21.068;2023-09-30T03:08:11;11.30;;;7.73;;
5060;SDS011;2549;52.128;21.068;2023-09-30T03:10:38;12.57;;;8.33;;
5060;SDS011;2549;52.128;21.068;2023-09-30T03:13:07;15.53;;;8.97;;
5060;SDS011;2549;52.128;21.068;2023-09-30T03:15:35;14.10;;;7.63;;
5060;SDS011;2549;52.128;21.068;2023-09-30T03:18:03;19.17;;;9.00;;
5060;SDS011;2549;52.128;21.068;2023-09-30T03:20:31;8.50;;;7.20;;
5060;SDS011;2549;52.128;21.068;2023-09-30T03:22:58;15.67;;;8.10;;
5060;SDS011;2549;52.128;21.068;2023-09-30T03:25:25;17.07;;;8.17;;
5060;SDS011;2549;52.128;21.068;2023-09-30T03:27:53;14.13;;;8.37;;
5060;SDS011;2549;52.128;21.068;2023-09-30T03:30:20;12.80;;;7.10;;
5060;SDS011;2549;52.128;21.068;2023-09-30T03:32:47;13.33;;;8.20;;
5060;SDS011;2549;52.128;21.068;2023-09-30T03:35:14;12.60;;;7.70;;
5060;SDS011;2549;52.128;21.068;2023-09-30T03:37:44;13.70;;;7.30;;
5060;SDS011;2549;52.128;21.068;2023-09-30T03:40:11;9.97;;;7.37;;
5060;SDS011;2549;52.128;21.068;2023-09-30T03:42:46;14.63;;;7.50;;
5060;SDS011;2549;52.128;21.068;2023-09-30T03:45:17;19.33;;;8.33;;
5060;SDS011;2549;52.128;21.068;2023-09-30T03:47:45;13.57;;;7.70;;
5060;SDS011;2549;52.128;21.068;2023-09-30T03:50:14;18.27;;;9.37;;
5060;SDS011;2549;52.128;21.068;2023-09-30T03:52:42;13.03;;;8.70;;
5060;SDS011;2549;52.128;21.068;2023-09-30T03:55:15;12.97;;;8.70;;
5060;SDS011;2549;52.128;21.068;2023-09-30T03:57:46;20.40;;;7.60;;
5060;SDS011;2549;52.128;21.068;2023-09-30T04:00:14;11.80;;;7.87;;
5060;SDS011;2549;52.128;21.068;2023-09-30T04:02:42;15.40;;;8.00;;
5060;SDS011;2549;52.128;21.068;2023-09-30T04:05:10;12.30;;;8.57;;
5060;SDS011;2549;52.128;21.068;2023-09-30T04:07:39;12.00;;;7.67;;
5060;SDS011;2549;52.128;21.068;2023-09-30T04:10:09;15.43;;;8.00;;
5060;SDS011;2549;52.128;21.068;2023-09-30T04:12:36;13.80;;;7.90;;
5060;SDS011;2549;52.128;21.068;2023-09-30T04:15:03;19.80;;;8.03;;
5060;SDS011;2549;52.128;21.068;2023-09-30T04:17:30;9.27;;;7.60;;
5060;SDS011;2549;52.128;21.068;2023-09-30T04:19:58;19.67;;;7.70;;
5060;SDS011;2549;52.128;21.068;2023-09-30T04:22:25;18.00;;;8.87;;
5060;SDS011;2549;52.128;21.068;2023-09-30T04:24:54;15.80;;;8.70;;
5060;SDS011;2549;52.128;21.068;2023-09-30T04:27:21;13.97;;;7.90;;
5060;SDS011;2549;52.128;21.068;2023-09-30T04:29:48;15.70;;;8.20;;
5060;SDS011;2549;52.128;21.068;2023-09-30T04:32:16;13.57;;;8.70;;
5060;SDS011;2549;52.128;21.068;2023-09-30T04:34:43;10.70;;;7.67;;
5060;SDS011;2549;52.128;21.068;2023-09-30T04:37:12;16.90;;;9.00;;
5060;SDS011;2549;52.128;21.068;2023-09-30T04:39:40;11.20;;;7.73;;
5060;SDS011;2549;52.128;21.068;2023-09-30T04:42:07;14.30;;;8.07;;
5060;SDS011;2549;52.128;21.068;2023-09-30T04:44:38;13.07;;;8.30;;
5060;SDS011;2549;52.128;21.068;2023-09-30T04:47:05;14.30;;;8.30;;
5060;SDS011;2549;52.128;21.068;2023-09-30T04:49:32;13.13;;;9.23;;
5060;SDS011;2549;52.128;21.068;2023-09-30T04:51:58;14.30;;;8.67;;
5060;SDS011;2549;52.128;21.068;2023-09-30T04:54:25;20.17;;;8.83;;
5060;SDS011;2549;52.128;21.068;2023-09-30T04:56:52;22.23;;;8.90;;
5060;SDS011;2549;52.128;21.068;2023-09-30T04:59:19;14.77;;;7.73;;
5060;SDS011;2549;52.128;21.068;2023-09-30T05:01:46;13.93;;;8.87;;
5060;SDS011;2549;52.128;21.068;2023-09-30T05:04:13;9.67;;;7.63;;
5060;SDS011;2549;52.128;21.068;2023-09-30T05:06:40;15.60;;;8.50;;
5060;SDS011;2549;52.128;21.068;2023-09-30T05:09:07;16.90;;;7.80;;
5060;SDS011;2549;52.128;21.068;2023-09-30T05:11:34;13.80;;;8.37;;
5060;SDS011;2549;52.128;21.068;2023-09-30T05:14:01;13.87;;;7.60;;
5060;SDS011;2549;52.128;21.068;2023-09-30T05:16:31;15.63;;;7.27;;
5060;SDS011;2549;52.128;21.068;2023-09-30T05:18:58;14.60;;;8.50;;
5060;SDS011;2549;52.128;21.068;2023-09-30T05:21:25;18.87;;;8.10;;
5060;SDS011;2549;52.128;21.068;2023-09-30T05:23:53;13.40;;;7.50;;
5060;SDS011;2549;52.128;21.068;2023-09-30T05:26:20;15.70;;;8.50;;
5060;SDS011;2549;52.128;21.068;2023-09-30T05:28:46;9.67;;;6.77;;
5060;SDS011;2549;52.128;21.068;2023-09-30T05:31:13;12.13;;;7.97;;
5060;SDS011;2549;52.128;21.068;2023-09-30T05:33:40;12.97;;;8.70;;
5060;SDS011;2549;52.128;21.068;2023-09-30T05:36:07;14.40;;;7.90;;
5060;SDS011;2549;52.128;21.068;2023-09-30T05:38:35;12.23;;;8.67;;
5060;SDS011;2549;52.128;21.068;2023-09-30T05:41:01;14.83;;;8.60;;
5060;SDS011;2549;52.128;21.068;2023-09-30T05:43:28;11.47;;;7.77;;
5060;SDS011;2549;52.128;21.068;2023-09-30T05:45:56;13.97;;;8.10;;
5060;SDS011;2549;52.128;21.068;2023-09-30T05:48:27;14.53;;;8.57;;
5060;SDS011;2549;52.128;21.068;2023-09-30T05:50:54;13.13;;;8.80;;
5060;SDS011;2549;52.128;21.068;2023-09-30T05:53:21;8.57;;;7.63;;
5060;SDS011;2549;52.128;21.068;2023-09-30T05:55:49;11.80;;;8.90;;
5060;SDS011;2549;52.128;21.068;2023-09-30T05:58:17;11.73;;;8.13;;
5060;SDS011;2549;52.128;21.068;2023-09-30T06:00:44;12.60;;;8.47;;
5060;SDS011;2549;52.128;21.068;2023-09-30T06:03:11;11.93;;;8.07;;
5060;SDS011;2549;52.128;21.068;2023-09-30T06:05:39;14.97;;;8.87;;
5060;SDS011;2549;52.128;21.068;2023-09-30T06:08:08;15.70;;;7.53;;
5060;SDS011;2549;52.128;21.068;2023-09-30T06:10:40;16.20;;;7.53;;
5060;SDS011;2549;52.128;21.068;2023-09-30T06:13:11;10.40;;;7.97;;
5060;SDS011;2549;52.128;21.068;2023-09-30T06:15:39;15.57;;;8.70;;
5060;SDS011;2549;52.128;21.068;2023-09-30T06:18:07;22.67;;;8.93;;
5060;SDS011;2549;52.128;21.068;2023-09-30T06:20:36;13.20;;;7.57;;
5060;SDS011;2549;52.128;21.068;2023-09-30T06:23:03;18.83;;;8.10;;
5060;SDS011;2549;52.128;21.068;2023-09-30T06:25:30;11.20;;;7.47;;
5060;SDS011;2549;52.128;21.068;2023-09-30T06:27:59;11.00;;;7.03;;
5060;SDS011;2549;52.128;21.068;2023-09-30T06:30:26;8.43;;;6.67;;
5060;SDS011;2549;52.128;21.068;2023-09-30T06:32:58;14.47;;;6.67;;
5060;SDS011;2549;52.128;21.068;2023-09-30T06:35:27;12.07;;;7.70;;
5060;SDS011;2549;52.128;21.068;2023-09-30T06:37:56;9.50;;;7.20;;
5060;SDS011;2549;52.128;21.068;2023-09-30T06:40:23;10.13;;;7.03;;
5060;SDS011;2549;52.128;21.068;2023-09-30T06:42:50;11.17;;;7.30;;
5060;SDS011;2549;52.128;21.068;2023-09-30T06:45:18;12.43;;;6.63;;
5060;SDS011;2549;52.128;21.068;2023-09-30T06:47:45;10.73;;;6.77;;
5060;SDS011;2549;52.128;21.068;2023-09-30T06:50:14;11.50;;;7.23;;
5060;SDS011;2549;52.128;21.068;2023-09-30T06:52:43;17.20;;;6.70;;
5060;SDS011;2549;52.128;21.068;2023-09-30T06:55:16;7.43;;;6.63;;
5060;SDS011;2549;52.128;21.068;2023-09-30T06:57:43;11.23;;;6.40;;
5060;SDS011;2549;52.128;21.068;2023-09-30T07:00:11;11.20;;;6.13;;
5060;SDS011;2549;52.128;21.068;2023-09-30T07:02:39;8.13;;;5.80;;
5060;SDS011;2549;52.128;21.068;2023-09-30T07:05:11;11.83;;;6.80;;
5060;SDS011;2549;52.128;21.068;2023-09-30T07:07:39;7.60;;;6.03;;
5060;SDS011;2549;52.128;21.068;2023-09-30T07:10:09;9.20;;;6.20;;
5060;SDS011;2549;52.128;21.068;2023-09-30T07:12:38;13.73;;;6.23;;
5060;SDS011;2549;52.128;21.068;2023-09-30T07:15:06;9.13;;;7.80;;
5060;SDS011;2549;52.128;21.068;2023-09-30T07:17:34;10.00;;;7.67;;
5060;SDS011;2549;52.128;21.068;2023-09-30T07:20:02;10.00;;;7.17;;
5060;SDS011;2549;52.128;21.068;2023-09-30T07:22:32;9.27;;;7.40;;
5060;SDS011;2549;52.128;21.068;2023-09-30T07:25:15;9.40;;;7.43;;
5060;SDS011;2549;52.128;21.068;2023-09-30T07:27:43;7.67;;;6.80;;
5060;SDS011;2549;52.128;21.068;2023-09-30T07:30:14;8.40;;;7.23;;
5060;SDS011;2549;52.128;21.068;2023-09-30T07:32:42;12.57;;;7.60;;
5060;SDS011;2549;52.128;21.068;2023-09-30T07:35:13;15.50;;;9.13;;
5060;SDS011;2549;52.128;21.068;2023-09-30T07:37:42;10.23;;;7.00;;
5060;SDS011;2549;52.128;21.068;2023-09-30T07:40:10;14.87;;;7.63;;
5060;SDS011;2549;52.128;21.068;2023-09-30T07:42:37;10.27;;;7.70;;
5060;SDS011;2549;52.128;21.068;2023-09-30T07:45:05;14.27;;;7.87;;
5060;SDS011;2549;52.128;21.068;2023-09-30T07:47:32;12.77;;;7.87;;
5060;SDS011;2549;52.128;21.068;2023-09-30T07:50:00;12.80;;;7.93;;
5060;SDS011;2549;52.128;21.068;2023-09-30T07:52:36;11.67;;;7.90;;
5060;SDS011;2549;52.128;21.068;2023-09-30T07:55:06;12.93;;;8.27;;
5060;SDS011;2549;52.128;21.068;2023-09-30T07:57:35;14.93;;;8.73;;
5060;SDS011;2549;52.128;21.068;2023-09-30T08:00:02;12.30;;;8.43;;
5060;SDS011;2549;52.128;21.068;2023-09-30T08:02:35;13.07;;;8.67;;
5060;SDS011;2549;52.128;21.068;2023-09-30T08:05:03;16.17;;;8.70;;
5060;SDS011;2549;52.128;21.068;2023-09-30T08:07:32;25.83;;;7.93;;
5060;SDS011;2549;52.128;21.068;2023-09-30T08:10:00;13.83;;;8.60;;
5060;SDS011;2549;52.128;21.068;2023-09-30T08:12:31;19.60;;;8.90;;
5060;SDS011;2549;52.128;21.068;2023-09-30T08:14:58;20.67;;;9.60;;
5060;SDS011;2549;52.128;21.068;2023-09-30T08:17:25;20.20;;;8.10;;
5060;SDS011;2549;52.128;21.068;2023-09-30T08:19:52;10.80;;;8.33;;
5060;SDS011;2549;52.128;21.068;2023-09-30T08:22:19;14.90;;;8.90;;
5060;SDS011;2549;52.128;21.068;2023-09-30T08:24:47;13.87;;;8.80;;
5060;SDS011;2549;52.128;21.068;2023-09-30T08:27:14;10.30;;;7.90;;
5060;SDS011;2549;52.128;21.068;2023-09-30T08:29:41;9.87;;;7.70;;
5060;SDS011;2549;52.128;21.068;2023-09-30T08:32:09;11.40;;;8.10;;
5060;SDS011;2549;52.128;21.068;2023-09-30T08:34:36;10.70;;;8.30;;
5060;SDS011;2549;52.128;21.068;2023-09-30T08:37:03;14.13;;;8.93;;
5060;SDS011;2549;52.128;21.068;2023-09-30T08:39:30;16.13;;;9.50;;
5060;SDS011;2549;52.128;21.068;2023-09-30T08:41:57;11.73;;;9.47;;
5060;SDS011;2549;52.128;21.068;2023-09-30T08:44:28;11.47;;;8.47;;
5060;SDS011;2549;52.128;21.068;2023-09-30T08:46:56;9.33;;;7.17;;
5060;SDS011;2549;52.128;21.068;2023-09-30T08:49:23;14.07;;;8.80;;
5060;SDS011;2549;52.128;21.068;2023-09-30T08:51:52;11.27;;;8.63;;
5060;SDS011;2549;52.128;21.068;2023-09-30T08:54:24;9.50;;;7.70;;
5060;SDS011;2549;52.128;21.068;2023-09-30T08:56:51;11.50;;;8.60;;
5060;SDS011;2549;52.128;21.068;2023-09-30T08:59:18;11.57;;;8.70;;
5060;SDS011;2549;52.128;21.068;2023-09-30T09:01:46;12.50;;;8.93;;
5060;SDS011;2549;52.128;21.068;2023-09-30T09:04:13;10.93;;;8.37;;
5060;SDS011;2549;52.128;21.068;2023-09-30T09:06:41;16.60;;;10.07;;
5060;SDS011;2549;52.128;21.068;2023-09-30T09:09:18;15.47;;;9.90;;
5060;SDS011;2549;52.128;21.068;2023-09-30T09:11:45;10.97;;;9.37;;
5060;SDS011;2549;52.128;21.068;2023-09-30T09:14:13;14.37;;;9.60;;
5060;SDS011;2549;52.128;21.068;2023-09-30T09:16:51;20.30;;;10.03;;
5060;SDS011;2549;52.128;21.068;2023-09-30T09:19:19;17.40;;;10.90;;
5060;SDS011;2549;52.128;21.068;2023-09-30T09:21:56;15.40;;;10.47;;
5060;SDS011;2549;52.128;21.068;2023-09-30T09:24:34;22.90;;;12.20;;
5060;SDS011;2549;52.128;21.068;2023-09-30T09:27:13;13.90;;;9.47;;
5060;SDS011;2549;52.128;21.068;2023-09-30T09:29:43;15.37;;;11.10;;
5060;SDS011;2549;52.128;21.068;2023-09-30T09:32:12;16.43;;;11.40;;
5060;SDS011;2549;52.128;21.068;2023-09-30T09:34:41;14.30;;;11.27;;
5060;SDS011;2549;52.128;21.068;2023-09-30T09:37:20;17.93;;;12.77;;
5060;SDS011;2549;52.128;21.068;2023-09-30T09:39:55;17.63;;;11.10;;
5060;SDS011;2549;52.128;21.068;2023-09-30T09:42:28;17.23;;;12.00;;
5060;SDS011;2549;52.128;21.068;2023-09-30T09:45:02;21.43;;;11.80;;
5060;SDS011;2549;52.128;21.068;2023-09-30T09:47:32;17.70;;;11.77;;
5060;SDS011;2549;52.128;21.068;2023-09-30T09:49:59;20.90;;;13.63;;
5060;SDS011;2549;52.128;21.068;2023-09-30T09:52:29;16.63;;;12.30;;
5060;SDS011;2549;52.128;21.068;2023-09-30T09:54:57;17.40;;;11.93;;
5060;SDS011;2549;52.128;21.068;2023-09-30T09:57:25;17.40;;;12.90;;
5060;SDS011;2549;52.128;21.068;2023-09-30T09:59:53;27.07;;;13.80;;
5060;SDS011;2549;52.128;21.068;2023-09-30T10:02:25;16.60;;;12.47;;
5060;SDS011;2549;52.128;21.068;2023-09-30T10:04:54;17.47;;;12.23;;
5060;SDS011;2549;52.128;21.068;2023-09-30T10:07:27;29.90;;;15.20;;
5060;SDS011;2549;52.128;21.068;2023-09-30T10:09:58;17.97;;;14.03;;
5060;SDS011;2549;52.128;21.068;2023-09-30T10:12:27;21.47;;;14.07;;
5060;SDS011;2549;52.128;21.068;2023-09-30T10:14:54;17.20;;;12.97;;
5060;SDS011;2549;52.128;21.068;2023-09-30T10:17:30;18.50;;;13.63;;
5060;SDS011;2549;52.128;21.068;2023-09-30T10:20:27;16.97;;;13.03;;
5060;SDS011;2549;52.128;21.068;2023-09-30T10:25:44;17.47;;;12.97;;
5060;SDS011;2549;52.128;21.068;2023-09-30T10:38:59;11.70;;;8.43;;
5060;SDS011;2549;52.128;21.068;2023-09-30T10:46:52;9.90;;;6.67;;
5060;SDS011;2549;52.128;21.068;2023-09-30T10:51:50;9.90;;;5.10;;
5060;SDS011;2549;52.128;21.068;2023-09-30T10:54:23;11.73;;;5.77;;
5060;SDS011;2549;52.128;21.068;2023-09-30T10:56:50;10.00;;;4.70;;
5060;SDS011;2549;52.128;21.068;2023-09-30T10:59:22;13.60;;;5.90;;
5060;SDS011;2549;52.128;21.068;2023-09-30T11:01:50;4.43;;;3.50;;
5060;SDS011;2549;52.128;21.068;2023-09-30T11:04:19;5.20;;;4.10;;
5060;SDS011;2549;52.128;21.068;2023-09-30T11:06:46;7.40;;;2.93;;
5060;SDS011;2549;52.128;21.068;2023-09-30T11:09:17;4.70;;;3.07;;
5060;SDS011;2549;52.128;21.068;2023-09-30T11:11:49;3.07;;;2.43;;
5060;SDS011;2549;52.128;21.068;2023-09-30T11:14:21;3.03;;;2.53;;
5060;SDS011;2549;52.128;21.068;2023-09-30T11:16:57;3.73;;;2.43;;
5060;SDS011;2549;52.128;21.068;2023-09-30T11:19:32;3.37;;;2.27;;
5060;SDS011;2549;52.128;21.068;2023-09-30T11:22:12;4.77;;;2.50;;
5060;SDS011;2549;52.128;21.068;2023-09-30T11:24:40;3.00;;;2.40;;
5060;SDS011;2549;52.128;21.068;2023-09-30T11:27:07;4.13;;;1.80;;
5060;SDS011;2549;52.128;21.068;2023-09-30T11:29:35;4.10;;;1.53;;
5060;SDS011;2549;52.128;21.068;2023-09-30T11:32:02;3.80;;;1.83;;
5060;SDS011;2549;52.128;21.068;2023-09-30T11:34:33;2.30;;;1.70;;
5060;SDS011;2549;52.128;21.068;2023-09-30T11:37:02;3.23;;;1.83;;
5060;SDS011;2549;52.128;21.068;2023-09-30T11:39:29;5.50;;;1.97;;
5060;SDS011;2549;52.128;21.068;2023-09-30T11:41:57;4.03;;;2.30;;
5060;SDS011;2549;52.128;21.068;2023-09-30T11:44:24;5.67;;;2.17;;
5060;SDS011;2549;52.128;21.068;2023-09-30T11:46:57;6.00;;;2.30;;
5060;SDS011;2549;52.128;21.068;2023-09-30T11:49:32;4.20;;;2.07;;
5060;SDS011;2549;52.128;21.068;2023-09-30T11:51:59;7.27;;;2.63;;
5060;SDS011;2549;52.128;21.068;2023-09-30T11:54:28;6.27;;;2.70;;
5060;SDS011;2549;52.128;21.068;2023-09-30T11:56:59;8.50;;;2.47;;
5060;SDS011;2549;52.128;21.068;2023-09-30T11:59:28;4.57;;;2.40;;
5060;SDS011;2549;52.128;21.068;2023-09-30T12:01:56;5.80;;;3.23;;
5060;SDS011;2549;52.128;21.068;2023-09-30T12:04:40;8.23;;;3.07;;
5060;SDS011;2549;52.128;21.068;2023-09-30T12:07:11;7.20;;;3.77;;
5060;SDS011;2549;52.128;21.068;2023-09-30T12:09:39;6.00;;;2.87;;
5060;SDS011;2549;52.128;21.068;2023-09-30T12:12:08;7.57;;;2.97;;
5060;SDS011;2549;52.128;21.068;2023-09-30T12:14:40;4.77;;;2.90;;
5060;SDS011;2549;52.128;21.068;2023-09-30T12:17:07;5.03;;;3.00;;
5060;SDS011;2549;52.128;21.068;2023-09-30T12:19:39;4.47;;;2.70;;
5060;SDS011;2549;52.128;21.068;2023-09-30T12:22:08;7.23;;;3.00;;
5060;SDS011;2549;52.128;21.068;2023-09-30T12:24:36;9.50;;;3.13;;
5060;SDS011;2549;52.128;21.068;2023-09-30T12:27:03;8.07;;;3.00;;
5060;SDS011;2549;52.128;21.068;2023-09-30T12:29:31;9.47;;;2.83;;
5060;SDS011;2549;52.128;21.068;2023-09-30T12:31:58;8.73;;;3.47;;
5060;SDS011;2549;52.128;21.068;2023-09-30T12:34:25;7.10;;;3.10;;
5060;SDS011;2549;52.128;21.068;2023-09-30T12:36:56;7.70;;;2.60;;
5060;SDS011;2549;52.128;21.068;2023-09-30T12:39:25;6.77;;;3.30;;
5060;SDS011;2549;52.128;21.068;2023-09-30T12:41:53;5.90;;;3.10;;
5060;SDS011;2549;52.128;21.068;2023-09-30T12:44:20;8.07;;;2.90;;
5060;SDS011;2549;52.128;21.068;2023-09-30T12:46:49;6.87;;;2.23;;
5060;SDS011;2549;52.128;21.068;2023-09-30T12:49:16;7.17;;;2.43;;
5060;SDS011;2549;52.128;21.068;2023-09-30T12:51:44;15.30;;;2.73;;
5060;SDS011;2549;52.128;21.068;2023-09-30T12:54:12;6.00;;;3.23;;
5060;SDS011;2549;52.128;21.068;2023-09-30T12:56:41;4.80;;;2.70;;
5060;SDS011;2549;52.128;21.068;2023-09-30T12:59:08;12.40;;;2.93;;
5060;SDS011;2549;52.128;21.068;2023-09-30T13:01:35;8.40;;;3.63;;
5060;SDS011;2549;52.128;21.068;2023-09-30T13:04:02;6.43;;;2.80;;
5060;SDS011;2549;52.128;21.068;2023-09-30T13:06:29;8.80;;;2.90;;
5060;SDS011;2549;52.128;21.068;2023-09-30T13:08:59;9.93;;;3.27;;
5060;SDS011;2549;52.128;21.068;2023-09-30T13:11:26;10.00;;;3.63;;
5060;SDS011;2549;52.128;21.068;2023-09-30T13:13:54;6.13;;;2.80;;
5060;SDS011;2549;52.128;21.068;2023-09-30T13:16:21;5.80;;;2.70;;
5060;SDS011;2549;52.128;21.068;2023-09-30T13:18:49;11.37;;;3.13;;
5060;SDS011;2549;52.128;21.068;2023-09-30T13:21:20;6.23;;;2.63;;
5060;SDS011;2549;52.128;21.068;2023-09-30T13:23:47;9.87;;;3.40;;
5060;SDS011;2549;52.128;21.068;2023-09-30T13:26:14;5.03;;;2.33;;
5060;SDS011;2549;52.128;21.068;2023-09-30T13:28:41;5.13;;;2.33;;
5060;SDS011;2549;52.128;21.068;2023-09-30T13:31:08;7.43;;;3.10;;
5060;SDS011;2549;52.128;21.068;2023-09-30T13:33:35;5.30;;;2.90;;
5060;SDS011;2549;52.128;21.068;2023-09-30T13:36:02;10.53;;;2.67;;
5060;SDS011;2549;52.128;21.068;2023-09-30T13:38:29;3.83;;;2.57;;
5060;SDS011;2549;52.128;21.068;2023-09-30T13:40:56;13.20;;;3.13;;
5060;SDS011;2549;52.128;21.068;2023-09-30T13:43:23;10.07;;;3.27;;
5060;SDS011;2549;52.128;21.068;2023-09-30T13:45:50;7.00;;;2.60;;
5060;SDS011;2549;52.128;21.068;2023-09-30T13:48:17;4.77;;;2.03;;
5060;SDS011;2549;52.128;21.068;2023-09-30T13:50:44;11.97;;;2.37;;
5060;SDS011;2549;52.128;21.068;2023-09-30T13:53:12;6.47;;;2.63;;
5060;SDS011;2549;52.128;21.068;2023-09-30T13:55:39;8.07;;;2.13;;
5060;SDS011;2549;52.128;21.068;2023-09-30T13:58:06;4.73;;;2.00;;
5060;SDS011;2549;52.128;21.068;2023-09-30T14:00:33;8.00;;;2.90;;
5060;SDS011;2549;52.128;21.068;2023-09-30T14:03:00;8.83;;;2.40;;
5060;SDS011;2549;52.128;21.068;2023-09-30T14:05:27;14.57;;;3.20;;
5060;SDS011;2549;52.128;21.068;2023-09-30T14:07:54;6.23;;;2.27;;
5060;SDS011;2549;52.128;21.068;2023-09-30T14:10:21;3.03;;;2.20;;
5060;SDS011;2549;52.128;21.068;2023-09-30T14:12:48;8.90;;;2.33;;
5060;SDS011;2549;52.128;21.068;2023-09-30T14:15:15;4.87;;;2.47;;
5060;SDS011;2549;52.128;21.068;2023-09-30T14:17:42;7.50;;;2.40;;
5060;SDS011;2549;52.128;21.068;2023-09-30T14:20:09;6.67;;;2.23;;
5060;SDS011;2549;52.128;21.068;2023-09-30T14:22:38;7.93;;;2.20;;
5060;SDS011;2549;52.128;21.068;2023-09-30T14:25:06;4.20;;;2.30;;
5060;SDS011;2549;52.128;21.068;2023-09-30T14:27:34;3.63;;;2.20;;
5060;SDS011;2549;52.128;21.068;2023-09-30T14:30:01;5.67;;;2.20;;
5060;SDS011;2549;52.128;21.068;2023-09-30T14:32:28;11.50;;;2.90;;
5060;SDS011;2549;52.128;21.068;2023-09-30T14:34:55;6.47;;;2.40;;
5060;SDS011;2549;52.128;21.068;2023-09-30T14:37:24;15.93;;;2.87;;
5060;SDS011;2549;52.128;21.068;2023-09-30T14:39:51;5.37;;;2.30;;
5060;SDS011;2549;52.128;21.068;2023-09-30T14:42:18;9.93;;;3.10;;
5060;SDS011;2549;52.128;21.068;2023-09-30T14:44:44;6.33;;;2.10;;
5060;SDS011;2549;52.128;21.068;2023-09-30T14:47:11;2.77;;;1.90;;
5060;SDS011;2549;52.128;21.068;2023-09-30T14:49:38;4.67;;;2.60;;
5060;SDS011;2549;52.128;21.068;2023-09-30T14:52:05;3.27;;;2.10;;
5060;SDS011;2549;52.128;21.068;2023-09-30T14:54:32;14.27;;;2.57;;
5060;SDS011;2549;52.128;21.068;2023-09-30T14:56:59;6.87;;;2.87;;
5060;SDS011;2549;52.128;21.068;2023-09-30T14:59:26;6.63;;;2.27;;
5060;SDS011;2549;52.128;21.068;2023-09-30T15:01:54;8.43;;;2.33;;
5060;SDS011;2549;52.128;21.068;2023-09-30T15:04:21;9.13;;;2.70;;
5060;SDS011;2549;52.128;21.068;2023-09-30T15:06:49;4.57;;;2.50;;
5060;SDS011;2549;52.128;21.068;2023-09-30T15:09:16;11.17;;;2.77;;
5060;SDS011;2549;52.128;21.068;2023-09-30T15:11:42;4.90;;;2.70;;
5060;SDS011;2549;52.128;21.068;2023-09-30T15:14:09;3.67;;;2.40;;
5060;SDS011;2549;52.128;21.068;2023-09-30T15:16:36;6.80;;;2.00;;
5060;SDS011;2549;52.128;21.068;2023-09-30T15:19:03;6.30;;;2.43;;